Time;durP1;ratioP1;P1;durP2;ratioP2;P2;SDS_P1;SDS_P2;PMS_P1;PMS_P2;Temp;Humidity;BMP_temperature;BMP_pressure;BME280_temperature;BME280_humidity;BME280_pressure;Samples;Min_cycle;Max_cycle;Signal;HPM_P1;HPM_P2
2024/04/10 00:01:16;;;;;;;9.45;2.35;;;11.40;79.60;;;;;;5503735;26;20311;-37
2024/04/10 00:03:41;;;;;;;7.90;2.20;;;11.40;79.60;;;;;;5505806;25;19993;-36
2024/04/10 00:06:09;;;;;;;7.90;2.17;;;11.40;79.60;;;;;;5504721;26;20005;-36
2024/04/10 00:08:36;;;;;;;8.77;2.08;;;11.30;79.60;;;;;;5505611;25;20430;-37
2024/04/10 00:11:02;;;;;;;9.35;2.28;;;11.30;79.60;;;;;;5505417;25;20070;-36
2024/04/10 00:13:28;;;;;;;10.13;2.28;;;11.30;79.70;;;;;;5505274;25;20039;-35
2024/04/10 00:15:58;;;;;;;7.15;2.30;;;11.20;79.70;;;;;;5505583;25;20129;-38
2024/04/10 00:18:23;;;;;;;9.05;2.30;;;11.20;79.80;;;;;;5505529;25;20002;-36
2024/04/10 00:20:49;;;;;;;8.95;2.50;;;11.20;79.80;;;;;;5505556;25;20020;-36
2024/04/10 00:23:15;;;;;;;10.05;2.25;;;11.20;79.90;;;;;;5504103;26;20499;-36
2024/04/10 00:25:40;;;;;;;12.90;2.60;;;11.20;80.00;;;;;;5505723;25;20010;-37
2024/04/10 00:28:06;;;;;;;8.35;2.33;;;11.10;80.10;;;;;;5505868;25;20465;-37
2024/04/10 00:30:31;;;;;;;7.63;2.45;;;11.10;80.20;;;;;;5503742;26;20006;-37
2024/04/10 00:32:57;;;;;;;8.10;2.30;;;11.00;80.40;;;;;;5505594;25;20066;-36
2024/04/10 00:35:23;;;;;;;8.75;2.75;;;11.00;80.50;;;;;;5505420;25;20008;-38
2024/04/10 00:37:48;;;;;;;7.00;2.15;;;10.90;80.60;;;;;;5505270;25;20034;-36
2024/04/10 00:40:14;;;;;;;10.05;2.33;;;10.90;81.30;;;;;;5505611;25;20003;-38
2024/04/10 00:42:40;;;;;;;11.57;2.65;;;10.90;80.80;;;;;;5505520;25;19998;-36
2024/04/10 00:45:05;;;;;;;13.57;2.80;;;10.90;80.90;;;;;;5505157;25;20480;-43
2024/04/10 00:47:31;;;;;;;11.32;2.65;;;10.90;81.00;;;;;;5505426;25;20004;-37
2024/04/10 00:49:57;;;;;;;6.93;2.08;;;10.90;81.00;;;;;;5505391;25;20002;-36
2024/04/10 00:52:23;;;;;;;11.27;2.75;;;10.90;81.10;;;;;;5505219;25;20010;-38
2024/04/10 00:54:49;;;;;;;10.02;2.47;;;10.90;81.80;;;;;;5505193;25;20097;-37
2024/04/10 00:57:15;;;;;;;13.98;2.50;;;10.90;81.20;;;;;;5493660;25;20002;-38
2024/04/10 00:59:40;;;;;;;9.93;2.60;;;10.90;81.30;;;;;;5489253;26;20005;-36
2024/04/10 01:02:07;;;;;;;9.40;2.20;;;10.90;81.30;;;;;;5488999;26;20387;-34
2024/04/10 01:04:33;;;;;;;8.25;2.58;;;10.90;81.30;;;;;;5489089;26;20010;-37
2024/04/10 01:06:58;;;;;;;8.57;2.30;;;10.90;81.30;;;;;;5487011;26;20070;-35
2024/04/10 01:09:24;;;;;;;8.93;2.65;;;10.90;81.40;;;;;;5489148;26;20016;-37
2024/04/10 01:11:50;;;;;;;7.38;2.05;;;10.90;81.40;;;;;;5488890;26;20002;-36
2024/04/10 01:24:22;;;;;;;8.50;2.10;;;10.90;81.40;;;;;;5488371;26;20496;-37
2024/04/10 01:26:47;;;;;;;14.40;2.40;;;10.90;81.40;;;;;;5488680;26;20002;-37
2024/04/10 01:29:13;;;;;;;11.60;2.38;;;10.90;81.60;;;;;;5456618;26;20005;-39
2024/04/10 01:31:38;;;;;;;7.05;2.22;;;10.90;81.80;;;;;;5487176;26;20002;-40
2024/04/10 01:34:04;;;;;;;9.23;2.40;;;10.90;82.00;;;;;;5489585;26;20002;-37
2024/04/10 01:36:30;;;;;;;7.90;2.60;;;10.80;82.30;;;;;;5488831;26;20056;-37
2024/04/10 01:38:56;;;;;;;7.70;1.90;;;10.90;82.80;;;;;;5487491;26;19999;-37
2024/04/10 01:41:21;;;;;;;7.63;1.90;;;10.80;82.80;;;;;;5487312;26;20035;-37
2024/04/10 01:43:47;;;;;;;7.60;2.20;;;10.80;83.10;;;;;;5488850;26;20010;-37
2024/04/10 01:46:12;;;;;;;7.40;2.38;;;10.80;83.20;;;;;;5488434;26;20130;-37
2024/04/10 01:48:38;;;;;;;4.28;2.03;;;10.70;83.30;;;;;;5488840;26;20008;-36
2024/04/10 01:51:04;;;;;;;4.45;1.90;;;10.70;83.60;;;;;;5488795;26;20459;-37
2024/04/10 01:53:30;;;;;;;7.15;2.10;;;10.60;83.70;;;;;;5487038;26;19998;-35
2024/04/10 01:55:55;;;;;;;5.82;2.40;;;10.60;83.90;;;;;;5488784;26;19998;-37
2024/04/10 01:58:21;;;;;;;4.95;1.73;;;10.60;84.00;;;;;;5488866;26;20002;-36
2024/04/10 02:00:47;;;;;;;4.03;1.92;;;10.60;84.20;;;;;;5488405;26;20447;-36
2024/04/10 02:03:13;;;;;;;6.72;2.53;;;10.60;84.40;;;;;;5488231;26;20071;-38
2024/04/10 02:05:38;;;;;;;6.97;2.53;;;10.60;84.50;;;;;;5487971;26;20454;-35
2024/04/10 02:08:05;;;;;;;6.88;2.30;;;10.50;84.50;;;;;;5488256;26;20002;-37
2024/04/10 02:10:31;;;;;;;7.30;2.20;;;10.60;84.70;;;;;;5488565;26;20073;-40
2024/04/10 02:12:56;;;;;;;7.07;2.50;;;10.50;84.70;;;;;;5488423;26;20010;-39
2024/04/10 02:15:22;;;;;;;5.72;2.20;;;10.50;84.90;;;;;;5488191;26;20342;-36
2024/04/10 02:17:47;;;;;;;6.80;2.15;;;10.50;84.90;;;;;;5486541;26;20005;-37
2024/04/10 02:20:15;;;;;;;9.40;2.60;;;10.50;85.00;;;;;;5488166;26;19998;-38
2024/04/10 02:22:42;;;;;;;8.52;3.00;;;10.50;85.10;;;;;;5487962;26;20013;-37
2024/04/10 02:25:08;;;;;;;6.30;2.13;;;10.60;85.10;;;;;;5487907;26;20458;-35
2024/04/10 02:27:33;;;;;;;6.80;2.20;;;10.50;85.10;;;;;;5488126;26;20009;-37
2024/04/10 02:29:59;;;;;;;10.23;3.03;;;10.50;85.20;;;;;;5488123;26;20009;-37
2024/04/10 02:32:25;;;;;;;7.43;2.42;;;10.50;85.30;;;;;;5488142;26;20038;-37
2024/04/10 02:34:50;;;;;;;6.35;2.35;;;10.50;85.20;;;;;;5488073;26;20013;-36
2024/04/10 02:37:16;;;;;;;7.97;2.40;;;10.50;85.30;;;;;;5487692;26;20034;-35
2024/04/10 02:39:41;;;;;;;10.43;2.95;;;10.50;85.30;;;;;;5488249;26;20028;-36
2024/04/10 02:42:07;;;;;;;9.55;2.83;;;10.50;85.40;;;;;;5487970;26;20447;-36
2024/04/10 02:44:33;;;;;;;8.85;2.80;;;10.50;85.30;;;;;;5487804;26;19994;-36
2024/04/10 02:46:58;;;;;;;8.50;2.55;;;10.50;85.40;;;;;;5487950;26;19998;-37
2024/04/10 02:49:24;;;;;;;8.00;3.10;;;10.50;85.50;;;;;;5487830;26;20326;-42
2024/04/10 02:51:49;;;;;;;4.93;2.40;;;10.50;85.50;;;;;;5486013;26;20010;-37
2024/04/10 02:54:15;;;;;;;4.40;2.47;;;10.60;85.50;;;;;;5487841;26;20511;-38
2024/04/10 02:56:41;;;;;;;9.43;2.85;;;10.60;85.50;;;;;;5487672;26;19994;-41
2024/04/10 02:59:07;;;;;;;9.50;2.67;;;10.60;85.50;;;;;;5488084;26;20006;-36
2024/04/10 03:01:33;;;;;;;7.85;2.53;;;10.60;85.50;;;;;;5487504;26;19999;-37
2024/04/10 03:03:59;;;;;;;7.70;2.42;;;10.60;85.50;;;;;;5487661;26;20427;-37
2024/04/10 03:06:24;;;;;;;8.25;2.20;;;10.70;85.60;;;;;;5486986;26;20016;-37
2024/04/10 03:08:50;;;;;;;6.88;2.40;;;10.70;85.60;;;;;;5487174;26;20013;-35
2024/04/10 03:11:18;;;;;;;7.10;3.17;;;10.70;85.60;;;;;;5487448;26;19998;-37
2024/04/10 03:13:43;;;;;;;11.52;2.90;;;10.70;85.60;;;;;;5487354;26;20002;-37
2024/04/10 03:16:10;;;;;;;9.38;2.78;;;10.70;85.60;;;;;;5487074;26;20430;-36
2024/04/10 03:18:36;;;;;;;7.13;2.55;;;10.70;85.60;;;;;;5487437;26;20324;-37
2024/04/10 03:21:02;;;;;;;8.50;2.58;;;10.60;85.70;;;;;;5486588;26;20012;-35
2024/04/10 03:23:28;;;;;;;10.48;3.22;;;10.70;85.80;;;;;;5487177;26;20093;-37
2024/04/10 03:26:09;;;;;;;7.68;2.50;;;10.70;85.80;;;;;;5485054;26;20034;-37
2024/04/10 03:28:34;;;;;;;5.45;2.60;;;10.60;85.80;;;;;;5487195;26;20002;-36
2024/04/10 03:31:02;;;;;;;8.27;2.45;;;10.60;85.80;;;;;;5487014;26;20133;-35
2024/04/10 03:33:28;;;;;;;9.50;2.90;;;10.70;85.90;;;;;;5486972;26;20360;-36
2024/04/10 03:35:54;;;;;;;6.65;2.40;;;10.70;85.90;;;;;;5486923;26;20010;-46
2024/04/10 03:38:20;;;;;;;6.22;2.30;;;10.70;85.90;;;;;;5486716;26;20004;-36
2024/04/10 03:40:46;;;;;;;8.68;3.22;;;10.70;85.90;;;;;;5486884;26;20463;-36
2024/04/10 03:43:12;;;;;;;8.00;2.97;;;10.70;85.80;;;;;;5486739;26;20012;-36
2024/04/10 03:45:38;;;;;;;8.15;2.63;;;10.70;85.90;;;;;;5486718;26;20002;-45
2024/04/10 03:48:03;;;;;;;7.70;2.65;;;10.70;85.80;;;;;;5486776;26;20002;-37
2024/04/10 03:50:29;;;;;;;9.73;3.25;;;10.70;85.90;;;;;;5486871;26;20013;-34
2024/04/10 03:52:55;;;;;;;8.63;2.85;;;10.70;85.90;;;;;;5486984;26;19994;-37
2024/04/10 03:55:20;;;;;;;7.75;3.00;;;10.70;85.90;;;;;;5486447;26;20010;-36
2024/04/10 03:57:46;;;;;;;7.95;2.80;;;10.70;85.90;;;;;;5486696;26;20006;-37
2024/04/10 04:00:12;;;;;;;6.03;2.60;;;10.70;85.90;;;;;;5486829;26;20439;-36
2024/04/10 04:02:38;;;;;;;7.38;2.33;;;10.70;85.90;;;;;;5486652;26;20077;-36
2024/04/10 04:05:04;;;;;;;8.43;3.30;;;10.70;85.80;;;;;;5484477;26;19998;-37
2024/04/10 04:07:30;;;;;;;8.07;2.75;;;10.70;85.80;;;;;;5486401;26;20002;-36
2024/04/10 04:09:56;;;;;;;7.50;2.65;;;10.70;85.80;;;;;;5486877;26;20006;-37
2024/04/10 04:12:21;;;;;;;6.20;2.67;;;10.70;85.80;;;;;;5486144;26;20028;-35
2024/04/10 04:14:47;;;;;;;8.23;2.83;;;10.70;85.80;;;;;;5486557;26;20009;-37
2024/04/10 04:17:13;;;;;;;8.55;2.72;;;10.70;85.80;;;;;;5486157;26;20013;-36
2024/04/10 04:19:39;;;;;;;9.30;2.88;;;10.70;85.80;;;;;;5485988;26;20070;-37
2024/04/10 04:22:05;;;;;;;10.23;2.70;;;10.70;85.70;;;;;;5484319;26;20387;-37
2024/04/10 04:24:30;;;;;;;9.93;2.92;;;10.70;85.60;;;;;;5484475;26;20026;-34
2024/04/10 04:26:56;;;;;;;9.02;3.00;;;10.70;85.60;;;;;;5486233;26;20002;-40
2024/04/10 04:29:22;;;;;;;13.15;3.10;;;10.70;85.50;;;;;;5486189;26;19999;-37
2024/04/10 04:31:50;;;;;;;9.50;2.60;;;10.70;85.50;;;;;;5485257;26;20013;-36
2024/04/10 04:34:16;;;;;;;7.70;2.85;;;10.60;85.40;;;;;;5489576;26;20186;-36
2024/04/10 04:36:45;;;;;;;7.65;2.40;;;10.60;85.40;;;;;;5488356;26;19994;-36
2024/04/10 04:39:13;;;;;;;6.80;2.38;;;10.60;85.40;;;;;;5489560;26;19998;-36
2024/04/10 04:41:39;;;;;;;8.15;2.80;;;10.60;85.40;;;;;;5489866;26;20014;-35
2024/04/10 04:44:04;;;;;;;7.15;2.40;;;10.70;85.40;;;;;;5489522;26;20395;-37
2024/04/10 04:46:30;;;;;;;6.88;2.47;;;10.60;85.20;;;;;;5489598;26;20009;-36
2024/04/10 04:48:55;;;;;;;5.35;2.05;;;10.60;85.20;;;;;;5489654;26;20489;-37
2024/04/10 04:51:21;;;;;;;6.53;2.63;;;10.60;85.20;;;;;;5489794;26;20037;-36
2024/04/10 04:53:46;;;;;;;7.70;2.75;;;10.60;85.20;;;;;;5489852;26;20008;-36
2024/04/10 04:56:12;;;;;;;9.90;2.53;;;10.60;85.10;;;;;;5489362;26;20009;-36
2024/04/10 04:58:38;;;;;;;10.15;2.60;;;10.60;85.10;;;;;;5488038;26;19998;-36
2024/04/10 05:01:03;;;;;;;13.45;2.58;;;10.60;85.00;;;;;;5489604;26;20013;-37
2024/04/10 05:06:13;;;;;;;7.88;2.40;;;10.60;85.00;;;;;;5488851;26;20043;-37
2024/04/10 05:08:39;;;;;;;10.38;2.30;;;10.60;85.00;;;;;;5489074;26;20002;-37
2024/04/10 05:11:08;;;;;;;6.00;2.15;;;10.60;85.00;;;;;;5489596;26;20002;-38
2024/04/10 05:13:35;;;;;;;7.97;2.25;;;10.60;84.90;;;;;;5489133;26;20014;-35
2024/04/10 05:16:01;;;;;;;8.15;2.30;;;10.60;84.90;;;;;;5489198;26;20010;-38
2024/04/10 05:18:26;;;;;;;9.13;2.95;;;10.60;84.90;;;;;;5489164;26;20013;-39
2024/04/10 05:20:52;;;;;;;7.63;2.40;;;10.60;85.00;;;;;;5487647;26;19998;-37
2024/04/10 05:23:18;;;;;;;8.00;2.33;;;10.60;84.90;;;;;;5487204;26;20476;-37
2024/04/10 05:25:45;;;;;;;8.98;2.70;;;10.60;84.90;;;;;;5488714;26;20051;-37
2024/04/10 05:28:11;;;;;;;6.78;2.45;;;10.60;85.00;;;;;;5489242;26;20457;-37
2024/04/10 05:30:37;;;;;;;8.65;2.60;;;10.60;85.00;;;;;;5488984;26;20002;-37
2024/04/10 05:33:03;;;;;;;11.80;3.10;;;10.60;85.00;;;;;;5486988;26;20002;-37
2024/04/10 05:35:28;;;;;;;9.43;2.38;;;10.60;85.10;;;;;;5486810;26;20439;-37
2024/04/10 05:37:55;;;;;;;8.68;2.38;;;10.60;85.10;;;;;;5488933;26;20013;-36
2024/04/10 05:40:20;;;;;;;9.38;2.58;;;10.60;85.10;;;;;;5488754;26;20455;-37
2024/04/10 05:42:46;;;;;;;6.55;2.10;;;10.60;85.10;;;;;;5488380;26;20098;-38
2024/04/10 05:45:13;;;;;;;10.13;2.38;;;10.60;85.10;;;;;;5488359;26;20009;-36
2024/04/10 05:47:47;;;;;;;6.47;2.20;;;10.70;85.10;;;;;;5488878;26;20012;-36
2024/04/10 05:50:13;;;;;;;8.57;2.28;;;10.70;85.10;;;;;;5488699;26;20030;-37
2024/04/10 05:52:41;;;;;;;7.95;2.40;;;10.60;85.00;;;;;;5489028;26;20335;-36
2024/04/10 05:55:07;;;;;;;7.68;2.58;;;10.70;85.10;;;;;;5489107;26;19998;-37
2024/04/10 05:57:32;;;;;;;7.20;2.78;;;10.70;85.10;;;;;;5488497;26;20488;-36
2024/04/10 05:59:58;;;;;;;9.38;2.47;;;10.70;85.10;;;;;;5486789;26;20020;-39
2024/04/10 06:02:27;;;;;;;6.50;2.20;;;10.70;85.20;;;;;;5486311;26;20459;-41
2024/04/10 06:04:59;;;;;;;9.35;2.70;;;10.70;85.10;;;;;;5488498;26;19998;-37
2024/04/10 06:07:25;;;;;;;8.05;2.50;;;10.80;85.10;;;;;;5487921;26;20078;-38
2024/04/10 06:09:58;;;;;;;6.75;2.30;;;10.80;85.00;;;;;;5486821;26;20010;-33
2024/04/10 06:12:24;;;;;;;8.07;2.83;;;10.80;84.90;;;;;;5488279;26;20077;-37
2024/04/10 06:14:54;;;;;;;9.32;2.60;;;10.90;84.90;;;;;;5488368;26;20030;-37
2024/04/10 06:17:21;;;;;;;6.43;2.10;;;10.90;84.80;;;;;;5487987;26;19998;-36
2024/04/10 06:19:49;;;;;;;9.35;2.40;;;10.90;84.70;;;;;;5488391;26;20013;-38
2024/04/10 06:22:15;;;;;;;8.60;2.75;;;11.00;84.70;;;;;;5488232;26;19998;-37
2024/04/10 06:24:44;;;;;;;14.45;3.03;;;11.00;84.50;;;;;;5488112;26;20017;-37
2024/04/10 06:27:10;;;;;;;8.50;2.65;;;11.10;84.30;;;;;;5487997;26;20006;-36
2024/04/10 06:29:41;;;;;;;10.95;2.70;;;11.10;84.20;;;;;;5488066;26;20008;-37
2024/04/10 06:32:07;;;;;;;10.65;2.35;;;11.20;84.20;;;;;;5488120;26;20012;-45
2024/04/10 06:34:32;;;;;;;10.20;2.38;;;11.20;84.10;;;;;;5487859;26;20014;-36
2024/04/10 06:36:58;;;;;;;8.65;2.20;;;11.30;84.00;;;;;;5487617;26;19998;-35
2024/04/10 06:39:23;;;;;;;7.82;2.55;;;11.40;83.90;;;;;;5488000;26;20014;-36
2024/04/10 06:41:49;;;;;;;10.45;2.63;;;11.40;83.70;;;;;;5487978;26;20084;-37
2024/04/10 06:44:15;;;;;;;9.88;2.85;;;11.40;83.50;;;;;;5488024;26;20013;-37
2024/04/10 06:46:40;;;;;;;9.10;3.13;;;11.50;83.50;;;;;;5487891;26;20009;-38
2024/04/10 06:49:06;;;;;;;7.88;2.45;;;11.60;83.30;;;;;;5488068;26;20008;-36
2024/04/10 06:51:32;;;;;;;9.68;2.67;;;11.60;83.10;;;;;;5487774;26;19999;-37
2024/04/10 06:53:58;;;;;;;12.13;2.85;;;11.60;82.70;;;;;;5486773;26;20025;-37
2024/04/10 06:56:24;;;;;;;7.32;2.20;;;11.60;82.60;;;;;;5487032;26;19998;-38
2024/04/10 06:58:49;;;;;;;6.55;2.38;;;11.60;82.50;;;;;;5487385;26;20506;-37
2024/04/10 07:01:15;;;;;;;8.68;2.83;;;11.60;82.40;;;;;;5487429;26;20009;-37
2024/04/10 07:03:42;;;;;;;9.77;2.28;;;11.60;82.50;;;;;;5487407;26;20063;-35
2024/04/10 07:06:18;;;;;;;10.77;2.42;;;11.70;82.40;;;;;;5487175;26;19998;-39
2024/04/10 07:08:46;;;;;;;8.32;2.17;;;11.70;82.30;;;;;;5487077;26;19998;-36
2024/04/10 07:11:15;;;;;;;9.55;3.00;;;11.80;82.30;;;;;;5487102;26;20038;-36
2024/04/10 07:13:44;;;;;;;8.55;2.47;;;11.80;82.10;;;;;;5487321;26;20027;-34
2024/04/10 07:16:09;;;;;;;10.20;2.50;;;11.90;82.10;;;;;;5486986;26;20017;-36
2024/04/10 07:18:35;;;;;;;9.60;2.70;;;11.90;81.80;;;;;;5487254;26;19994;-37
2024/04/10 07:21:06;;;;;;;10.18;2.80;;;11.90;81.60;;;;;;5487117;26;20002;-36
2024/04/10 07:23:33;;;;;;;11.10;2.55;;;11.90;81.60;;;;;;5487119;26;20366;-37
2024/04/10 07:26:20;;;;;;;8.27;2.97;;;11.90;81.50;;;;;;5487143;26;20012;-37
2024/04/10 07:28:56;;;;;;;9.63;2.58;;;12.00;81.40;;;;;;5487288;26;20022;-37
2024/04/10 07:31:31;;;;;;;12.95;2.65;;;12.00;81.20;;;;;;5485451;26;20304;-38
2024/04/10 07:33:57;;;;;;;9.70;2.70;;;12.00;80.80;;;;;;5487070;26;20033;-38
2024/04/10 07:36:24;;;;;;;9.85;2.75;;;12.10;80.60;;;;;;5486537;26;19998;-37
2024/04/10 07:38:53;;;;;;;8.32;2.22;;;12.10;80.50;;;;;;5487306;26;20013;-36
2024/04/10 07:41:19;;;;;;;10.50;2.67;;;12.00;80.40;;;;;;5487115;26;20036;-36
2024/04/10 07:43:44;;;;;;;8.57;2.17;;;11.90;80.60;;;;;;5485384;26;20038;-37
2024/04/10 07:46:15;;;;;;;9.80;2.53;;;11.90;80.60;;;;;;5486473;26;20363;-36
2024/04/10 07:48:42;;;;;;;7.95;2.90;;;11.90;80.60;;;;;;5487218;26;20002;-36
2024/04/10 07:51:09;;;;;;;10.73;2.80;;;11.80;80.40;;;;;;5487296;26;20005;-35
2024/04/10 07:53:41;;;;;;;9.75;2.80;;;11.90;80.40;;;;;;5486989;26;20018;-37
2024/04/10 07:56:07;;;;;;;9.52;3.13;;;12.00;80.30;;;;;;5487084;26;20025;-38
2024/04/10 07:58:36;;;;;;;8.82;2.40;;;12.00;79.90;;;;;;5487130;26;19994;-36
2024/04/10 08:01:03;;;;;;;10.82;2.72;;;12.00;79.90;;;;;;5486512;26;20285;-38
2024/04/10 08:03:30;;;;;;;8.57;2.42;;;12.00;79.90;;;;;;5486467;26;19994;-37
2024/04/10 08:05:59;;;;;;;10.57;2.70;;;12.00;79.60;;;;;;5487661;26;20071;-37
2024/04/10 08:08:26;;;;;;;10.85;2.60;;;12.00;79.80;;;;;;5489875;26;19998;-37
2024/04/10 08:10:57;;;;;;;10.30;2.50;;;12.00;79.20;;;;;;5490546;26;20140;-37
2024/04/10 08:13:22;;;;;;;7.03;2.08;;;12.00;79.20;;;;;;5489984;26;20446;-37
2024/04/10 08:16:04;;;;;;;10.45;2.33;;;12.10;79.20;;;;;;5489835;26;20012;-34
2024/04/10 08:18:31;;;;;;;10.75;2.72;;;12.20;78.90;;;;;;5490144;26;20338;-37
2024/04/10 08:21:04;;;;;;;9.25;2.50;;;12.20;78.10;;;;;;5490177;26;20366;-37
2024/04/10 08:23:31;;;;;;;9.82;2.42;;;12.20;77.60;;;;;;5490054;26;19994;-36
2024/04/10 08:25:58;;;;;;;12.30;3.22;;;12.30;77.40;;;;;;5489609;26;20012;-38
2024/04/10 08:28:25;;;;;;;8.57;2.53;;;12.30;77.20;;;;;;5489953;26;19999;-36
2024/04/10 08:30:54;;;;;;;11.60;2.33;;;12.30;77.00;;;;;;5490032;26;20002;-37
2024/04/10 08:33:21;;;;;;;13.82;2.90;;;12.30;76.30;;;;;;5489643;26;20072;-35
2024/04/10 08:35:59;;;;;;;10.95;2.92;;;12.40;76.20;;;;;;5489924;26;19994;-37
2024/04/10 08:38:25;;;;;;;9.63;2.45;;;12.40;76.20;;;;;;5487704;26;20009;-37
2024/04/10 08:40:55;;;;;;;5.60;2.42;;;12.40;76.20;;;;;;5489814;26;20002;-36
2024/04/10 08:43:22;;;;;;;10.35;2.70;;;12.50;75.80;;;;;;5489543;26;19998;-36
2024/04/10 08:45:49;;;;;;;9.10;2.55;;;12.50;75.70;;;;;;5489304;26;20013;-38
2024/04/10 08:48:18;;;;;;;10.05;2.92;;;12.50;75.50;;;;;;5489733;26;19994;-36
2024/04/10 08:50:45;;;;;;;10.85;3.10;;;12.50;74.90;;;;;;5489755;26;20034;-36
2024/04/10 08:53:13;;;;;;;7.82;2.20;;;12.60;74.90;;;;;;5489673;26;19998;-37
2024/04/10 08:55:40;;;;;;;7.18;2.45;;;12.60;75.20;;;;;;5489705;26;20002;-36
2024/04/10 08:58:06;;;;;;;14.57;2.97;;;12.80;74.90;;;;;;5489753;26;20389;-36
2024/04/10 09:00:38;;;;;;;9.10;2.70;;;12.80;74.00;;;;;;5490094;26;20433;-37
2024/04/10 09:03:04;;;;;;;8.77;2.10;;;12.90;73.60;;;;;;5489068;26;20009;-36
2024/04/10 09:05:30;;;;;;;7.82;2.22;;;12.90;73.20;;;;;;5488959;26;20354;-37
2024/04/10 09:07:59;;;;;;;8.13;1.95;;;12.90;73.10;;;;;;5488775;26;20075;-37
2024/04/10 09:10:25;;;;;;;7.43;2.20;;;13.00;72.90;;;;;;5488924;26;20049;-44
2024/04/10 09:12:51;;;;;;;9.30;2.42;;;13.00;72.60;;;;;;5489278;26;20443;-37
2024/04/10 09:15:19;;;;;;;7.03;2.13;;;13.10;72.80;;;;;;5488910;26;20009;-37
2024/04/10 09:17:46;;;;;;;10.95;3.00;;;13.10;72.60;;;;;;5488481;26;20030;-37
2024/04/10 09:20:17;;;;;;;10.75;2.70;;;13.10;72.60;;;;;;5488863;26;19998;-37
2024/04/10 09:23:00;;;;;;;8.45;2.53;;;13.10;71.90;;;;;;5488875;26;20001;-36
2024/04/10 09:25:26;;;;;;;7.68;2.20;;;13.10;71.90;;;;;;5488957;26;20439;-37
2024/04/10 09:27:59;;;;;;;4.85;2.00;;;13.10;71.90;;;;;;5488999;26;20005;-36
2024/04/10 09:30:24;;;;;;;9.65;2.90;;;13.10;72.30;;;;;;5489314;26;20034;-37
2024/04/10 09:32:53;;;;;;;6.10;2.00;;;13.20;71.80;;;;;;5489125;26;20013;-36
2024/04/10 09:35:20;;;;;;;7.00;2.33;;;13.30;71.70;;;;;;5488768;26;20004;-36
2024/04/10 09:37:48;;;;;;;7.97;3.10;;;13.40;71.20;;;;;;5487021;26;19998;-37
2024/04/10 09:40:14;;;;;;;8.05;2.20;;;13.50;70.30;;;;;;5489024;26;19998;-36
2024/04/10 09:42:46;;;;;;;7.03;2.35;;;13.50;70.40;;;;;;5489119;26;20013;-37
2024/04/10 09:45:17;;;;;;;7.78;2.35;;;13.60;70.30;;;;;;5488534;26;20067;-37
2024/04/10 09:47:43;;;;;;;6.63;2.10;;;13.60;70.20;;;;;;5488839;26;20332;-35
2024/04/10 09:50:23;;;;;;;7.00;2.05;;;13.50;70.20;;;;;;5488685;26;20002;-37
2024/04/10 09:52:51;;;;;;;7.22;2.10;;;13.50;70.40;;;;;;5488935;26;20482;-37
2024/04/10 09:55:16;;;;;;;8.07;2.35;;;13.50;70.40;;;;;;5488550;26;20012;-37
2024/04/10 09:57:44;;;;;;;10.38;2.50;;;13.50;70.50;;;;;;5488817;26;20002;-37
2024/04/10 10:00:11;;;;;;;7.65;2.47;;;13.50;70.20;;;;;;5489275;26;20002;-37
2024/04/10 10:02:37;;;;;;;8.80;2.63;;;13.50;70.50;;;;;;5488422;26;20010;-38
2024/04/10 10:05:03;;;;;;;6.63;2.30;;;13.50;70.30;;;;;;5488287;26;20470;-38
2024/04/10 10:07:29;;;;;;;7.50;2.30;;;13.50;70.00;;;;;;5488002;26;20017;-37
2024/04/10 10:10:07;;;;;;;9.43;2.30;;;13.50;69.90;;;;;;5488534;26;20013;-38
2024/04/10 10:12:33;;;;;;;8.32;2.30;;;13.50;69.20;;;;;;5488562;26;20002;-37
2024/04/10 10:15:12;;;;;;;3.65;1.65;;;13.50;68.50;;;;;;5488524;26;20010;-38
2024/04/10 10:17:38;;;;;;;5.80;2.00;;;13.50;68.40;;;;;;5488635;26;20010;-39
2024/04/10 10:20:05;;;;;;;6.05;1.83;;;13.50;67.70;;;;;;5488375;26;20018;-41
2024/04/10 10:22:31;;;;;;;4.28;1.70;;;13.50;68.00;;;;;;5488349;26;19998;-36
2024/04/10 10:24:59;;;;;;;4.43;1.60;;;13.60;67.40;;;;;;5488285;26;20351;-34
2024/04/10 10:27:26;;;;;;;7.35;1.75;;;13.70;68.00;;;;;;5488228;26;20008;-36
2024/04/10 10:30:06;;;;;;;6.78;1.75;;;13.90;67.90;;;;;;5486911;26;19998;-36
2024/04/10 10:32:32;;;;;;;8.18;1.50;;;14.00;66.60;;;;;;5488010;26;20017;-37
2024/04/10 10:35:10;;;;;;;8.57;2.00;;;13.90;66.00;;;;;;5487992;26;19998;-38
2024/04/10 10:37:36;;;;;;;6.47;1.70;;;13.80;65.60;;;;;;5487852;26;20330;-37
2024/04/10 10:40:06;;;;;;;6.05;1.60;;;13.80;65.80;;;;;;5487901;26;19998;-37
2024/04/10 10:42:32;;;;;;;6.50;1.73;;;13.70;65.40;;;;;;5487523;26;19994;-37
2024/04/10 10:45:05;;;;;;;9.48;1.92;;;13.70;65.30;;;;;;5487302;26;20002;-37
2024/04/10 10:47:41;;;;;;;3.45;1.42;;;13.80;64.40;;;;;;5487796;26;19998;-38
2024/04/10 10:50:07;;;;;;;5.95;1.65;;;13.80;64.00;;;;;;5487974;26;19994;-37
2024/04/10 10:52:33;;;;;;;3.42;1.20;;;13.80;64.00;;;;;;5488227;26;20013;-36
2024/04/10 10:55:07;;;;;;;4.15;1.25;;;13.80;64.30;;;;;;5486087;26;19998;-38
2024/04/10 10:57:33;;;;;;;6.00;1.85;;;13.90;64.30;;;;;;5487861;26;20327;-38
2024/04/10 10:59:59;;;;;;;3.55;1.50;;;14.00;63.80;;;;;;5487737;26;20030;-37
2024/04/10 11:02:26;;;;;;;4.18;1.27;;;14.00;63.40;;;;;;5487490;26;20025;-34
2024/04/10 11:04:53;;;;;;;2.78;1.25;;;14.00;64.00;;;;;;5485741;26;20009;-36
2024/04/10 11:07:20;;;;;;;5.22;1.60;;;14.10;63.20;;;;;;5487157;26;20008;-36
2024/04/10 11:09:46;;;;;;;6.35;1.52;;;14.10;61.90;;;;;;5487603;26;19998;-37
2024/04/10 11:12:12;;;;;;;4.40;1.27;;;14.10;62.60;;;;;;5487455;26;20075;-37
2024/04/10 11:14:37;;;;;;;5.93;1.30;;;14.20;63.20;;;;;;5487180;26;20034;-37
2024/04/10 11:17:05;;;;;;;4.47;1.00;;;14.40;63.50;;;;;;5487453;26;20021;-37
2024/04/10 11:19:33;;;;;;;2.10;0.98;;;14.40;63.40;;;;;;5487338;26;20067;-36
2024/04/10 11:21:59;;;;;;;4.72;1.70;;;14.40;63.40;;;;;;5487343;26;19998;-38
2024/04/10 11:24:24;;;;;;;4.15;1.35;;;14.40;62.60;;;;;;5486986;26;20016;-37
2024/04/10 11:26:50;;;;;;;4.45;1.52;;;14.30;62.10;;;;;;5487073;26;20002;-37
2024/04/10 11:29:16;;;;;;;9.70;2.08;;;14.30;62.00;;;;;;5486579;26;20074;-37
2024/04/10 11:31:42;;;;;;;6.90;1.27;;;14.30;62.60;;;;;;5486579;26;20480;-39
2024/04/10 11:34:10;;;;;;;5.53;1.35;;;14.20;60.70;;;;;;5487269;26;20117;-40
2024/04/10 11:36:35;;;;;;;4.13;1.10;;;14.10;61.50;;;;;;5484942;26;20334;-36
2024/04/10 11:39:01;;;;;;;5.20;1.13;;;14.10;61.40;;;;;;5487313;26;20329;-37
2024/04/10 11:41:26;;;;;;;6.30;1.27;;;14.10;62.30;;;;;;5486466;26;20070;-37
2024/04/10 11:43:52;;;;;;;4.95;1.48;;;14.10;61.80;;;;;;5486899;26;20413;-36
2024/04/10 11:46:18;;;;;;;6.70;1.67;;;14.10;61.30;;;;;;5486420;26;20013;-38
2024/04/10 11:48:45;;;;;;;5.72;1.27;;;14.00;61.30;;;;;;5486858;26;20037;-37
2024/04/10 11:51:10;;;;;;;5.50;1.40;;;13.90;61.30;;;;;;5486770;26;19998;-42
2024/04/10 11:53:37;;;;;;;5.15;1.20;;;14.00;62.00;;;;;;5486636;26;20066;-37
2024/04/10 11:56:03;;;;;;;4.00;1.10;;;14.00;61.80;;;;;;5486637;26;20474;-41
2024/04/10 11:58:28;;;;;;;4.65;1.23;;;14.10;61.50;;;;;;5484747;26;20018;-43
2024/04/10 12:00:54;;;;;;;5.45;1.10;;;14.20;61.30;;;;;;5486723;26;20467;-37
2024/04/10 12:03:20;;;;;;;5.05;1.17;;;14.30;60.50;;;;;;5486824;26;20002;-37
2024/04/10 12:05:46;;;;;;;3.42;1.13;;;14.50;60.60;;;;;;5485851;26;19998;-37
2024/04/10 12:08:12;;;;;;;4.53;1.50;;;14.60;60.30;;;;;;5485914;26;20002;-35
2024/04/10 12:10:38;;;;;;;3.78;1.13;;;14.70;59.50;;;;;;5486235;26;20017;-38
2024/04/10 12:13:04;;;;;;;3.95;1.23;;;14.80;58.30;;;;;;5486522;26;20002;-43
2024/04/10 12:15:30;;;;;;;6.32;1.35;;;14.90;58.40;;;;;;5486712;26;20013;-41
2024/04/10 12:17:55;;;;;;;6.18;1.00;;;14.90;57.70;;;;;;5486633;26;20044;-37
2024/04/10 12:20:23;;;;;;;4.97;1.27;;;15.00;58.10;;;;;;5484885;26;20034;-36
2024/04/10 12:22:49;;;;;;;3.80;1.00;;;15.20;57.00;;;;;;5486653;26;20292;-37
2024/04/10 12:25:15;;;;;;;3.03;1.10;;;15.20;57.20;;;;;;5486028;26;20005;-36
2024/04/10 12:27:41;;;;;;;3.90;0.93;;;15.30;57.00;;;;;;5484633;26;19994;-36
2024/04/10 12:30:07;;;;;;;4.00;1.00;;;15.30;56.40;;;;;;5485231;26;20347;-37
2024/04/10 12:32:32;;;;;;;4.78;1.10;;;15.30;56.10;;;;;;5485967;26;20351;-37
2024/04/10 12:38:02;;;;;;;3.13;0.80;;;15.30;56.00;;;;;;5484096;26;20003;-37
2024/04/10 12:40:28;;;;;;;2.75;0.73;;;15.30;54.80;;;;;;5485152;26;20074;-39
2024/04/10 12:42:53;;;;;;;3.35;0.82;;;15.20;54.80;;;;;;5485550;26;20006;-36
2024/04/10 12:45:19;;;;;;;3.33;1.42;;;15.20;52.80;;;;;;5485668;26;20014;-38
2024/04/10 12:47:44;;;;;;;1.55;0.70;;;15.20;52.50;;;;;;5485536;26;20002;-36
2024/04/10 12:50:10;;;;;;;2.00;0.90;;;15.20;53.60;;;;;;5486014;26;20471;-36
2024/04/10 12:52:36;;;;;;;1.95;0.90;;;15.30;54.10;;;;;;5486705;26;19998;-36
2024/04/10 12:55:02;;;;;;;3.15;0.80;;;15.40;54.00;;;;;;5489776;26;19998;-35
2024/04/10 12:57:28;;;;;;;2.70;0.90;;;15.40;54.20;;;;;;5489706;26;20013;-37
2024/04/10 12:59:54;;;;;;;3.17;1.23;;;15.50;54.40;;;;;;5489733;26;20006;-36